createdAt,value
2023-04-01T00:00:55.984Z,26.47
2023-04-01T00:01:55.942Z,26.47
2023-04-01T00:02:56.024Z,26.47
2023-04-01T00:03:56.046Z,26.47
2023-04-01T00:04:55.978Z,26.48
2023-04-01T00:05:55.950Z,26.48
2023-04-01T00:06:55.961Z,26.46
2023-04-01T00:07:55.957Z,26.47
2023-04-01T00:08:55.971Z,26.47
2023-04-01T00:09:55.968Z,26.46
2023-04-01T00:10:55.997Z,26.45
2023-04-01T00:11:55.960Z,26.44
2023-04-01T00:12:55.968Z,26.45
2023-04-01T00:13:55.974Z,26.42
2023-04-01T00:14:55.990Z,26.45
2023-04-01T00:15:56.262Z,26.43
2023-04-01T00:16:56.031Z,26.42
2023-04-01T00:17:56.042Z,26.43
2023-04-01T00:18:56.017Z,26.44
2023-04-01T00:19:56.002Z,26.44
2023-04-01T00:20:56.018Z,26.43
2023-04-01T00:21:56.001Z,26.42
2023-04-01T00:22:56.014Z,26.39
2023-04-01T00:23:56.011Z,26.41
2023-04-01T00:24:56.011Z,26.39
2023-04-01T00:25:56.015Z,26.39
2023-04-01T00:26:56.025Z,26.38
2023-04-01T00:27:56.025Z,26.36
2023-04-01T00:28:56.022Z,26.36
2023-04-01T00:29:56.021Z,26.39
2023-04-01T00:30:56.009Z,26.39
2023-04-01T00:31:56.075Z,26.37
2023-04-01T00:32:56.088Z,26.39
2023-04-01T00:33:55.945Z,26.38
2023-04-01T00:34:55.937Z,26.35
2023-04-01T00:35:55.921Z,26.36
2023-04-01T00:36:55.893Z,26.36
2023-04-01T00:37:55.882Z,26.35
2023-04-01T00:38:55.880Z,26.30
2023-04-01T00:39:55.855Z,26.33
2023-04-01T00:40:55.836Z,26.34
2023-04-01T00:41:55.805Z,26.33
2023-04-01T00:42:55.815Z,26.31
2023-04-01T00:43:55.777Z,26.30
2023-04-01T00:44:55.786Z,26.31
2023-04-01T00:45:55.753Z,26.29
2023-04-01T00:46:55.767Z,26.28
2023-04-01T00:47:55.772Z,26.30
2023-04-01T00:48:55.713Z,26.26
2023-04-01T00:49:55.737Z,26.28
2023-04-01T00:50:55.662Z,26.27
2023-04-01T00:51:55.653Z,26.28
2023-04-01T00:52:55.659Z,26.26
2023-04-01T00:53:55.637Z,26.21
2023-04-01T00:54:55.659Z,26.23
2023-04-01T00:55:55.657Z,26.22
2023-04-01T00:56:55.702Z,26.24
2023-04-01T00:57:55.666Z,26.21
2023-04-01T00:58:55.666Z,26.24
2023-04-01T00:59:55.691Z,26.22
2023-04-01T01:00:55.709Z,26.25
2023-04-01T01:01:55.777Z,26.23
2023-04-01T01:02:55.731Z,26.19
2023-04-01T01:03:55.744Z,26.22
2023-04-01T01:04:55.709Z,26.20
2023-04-01T01:05:55.710Z,26.19
2023-04-01T01:06:55.789Z,26.22
2023-04-01T01:07:55.731Z,26.21
2023-04-01T01:08:55.732Z,26.18
2023-04-01T01:09:55.753Z,26.18
2023-04-01T01:10:55.767Z,26.19
2023-04-01T01:11:55.749Z,26.17
2023-04-01T01:12:55.734Z,26.19
2023-04-01T01:13:55.753Z,26.15
2023-04-01T01:14:55.739Z,26.21
2023-04-01T01:15:55.740Z,26.18
2023-04-01T01:16:55.922Z,26.13
2023-04-01T01:17:55.815Z,26.18
2023-04-01T01:18:55.739Z,26.16
2023-04-01T01:19:55.754Z,26.12
2023-04-01T01:20:55.769Z,26.15
2023-04-01T01:21:55.772Z,26.11
2023-04-01T01:22:55.774Z,26.15
2023-04-01T01:23:55.770Z,26.12
2023-04-01T01:24:55.778Z,26.09
2023-04-01T01:25:55.803Z,26.09
2023-04-01T01:26:55.787Z,26.09
2023-04-01T01:27:55.835Z,26.11
2023-04-01T01:28:55.794Z,26.08
2023-04-01T01:29:55.816Z,26.08
2023-04-01T01:30:55.879Z,26.08
2023-04-01T01:31:55.840Z,26.09
2023-04-01T01:32:55.964Z,26.11
2023-04-01T01:33:55.905Z,26.05
2023-04-01T01:34:55.943Z,26.05
2023-04-01T01:35:55.947Z,26.08
2023-04-01T01:36:55.945Z,26.05
2023-04-01T01:37:55.964Z,26.04
2023-04-01T01:38:55.976Z,26.02
2023-04-01T01:39:55.991Z,26.02
2023-04-01T01:40:55.997Z,26.07
2023-04-01T01:41:56.003Z,26.01
2023-04-01T01:42:56.010Z,26.07
2023-04-01T01:43:56.027Z,26.05
2023-04-01T01:44:56.044Z,26.06
2023-04-01T01:45:56.074Z,26.05
2023-04-01T01:46:56.056Z,26.06
2023-04-01T01:47:56.096Z,26.04
2023-04-01T01:48:56.070Z,26.03
2023-04-01T01:49:56.091Z,26.01
2023-04-01T01:50:56.073Z,26.00
2023-04-01T01:51:56.078Z,26.01
2023-04-01T01:52:56.053Z,26.02
2023-04-01T01:53:56.044Z,26.00
2023-04-01T01:54:56.047Z,26.04
2023-04-01T01:55:56.013Z,25.96
2023-04-01T01:56:56.048Z,26.00
2023-04-01T01:57:55.994Z,25.99
2023-04-01T01:58:55.979Z,25.99
2023-04-01T01:59:55.993Z,25.96
2023-04-01T02:00:55.984Z,25.96
2023-04-01T02:01:56.038Z,25.97
2023-04-01T02:02:55.970Z,25.94
2023-04-01T02:03:55.954Z,25.95
2023-04-01T02:04:55.971Z,25.94
2023-04-01T02:05:55.937Z,25.92
2023-04-01T02:06:55.923Z,25.93
2023-04-01T02:07:55.904Z,25.92
2023-04-01T02:08:55.892Z,25.94
2023-04-01T02:09:55.897Z,25.95
2023-04-01T02:10:55.865Z,25.93
2023-04-01T02:11:55.845Z,25.93
2023-04-01T02:12:55.861Z,25.94
2023-04-01T02:13:55.838Z,25.92
2023-04-01T02:14:55.866Z,25.90
2023-04-01T02:15:55.881Z,25.90
2023-04-01T02:16:55.873Z,25.91
2023-04-01T02:17:55.958Z,25.89
2023-04-01T02:18:55.915Z,25.88
2023-04-01T02:19:55.960Z,25.90
2023-04-01T02:20:55.957Z,25.88
2023-04-01T02:21:55.996Z,25.89
2023-04-01T02:22:56.019Z,25.90
2023-04-01T02:23:56.036Z,25.89
2023-04-01T02:24:56.043Z,25.87
2023-04-01T02:25:56.053Z,25.82
2023-04-01T02:26:56.064Z,25.85
2023-04-01T02:27:56.102Z,25.83
2023-04-01T02:28:56.088Z,25.89
2023-04-01T02:29:56.110Z,25.86
2023-04-01T02:30:56.135Z,25.84
2023-04-01T02:31:56.150Z,25.89
2023-04-01T02:32:56.223Z,25.87
2023-04-01T02:33:56.166Z,25.88
2023-04-01T02:34:56.191Z,25.86
2023-04-01T02:35:56.247Z,25.85
2023-04-01T02:36:56.229Z,25.86
2023-04-01T02:37:56.315Z,25.85
2023-04-01T02:38:56.332Z,25.86
2023-04-01T02:39:56.375Z,25.82
2023-04-01T02:40:56.418Z,25.81
2023-04-01T02:41:56.495Z,25.82
2023-04-01T02:42:56.508Z,25.87
2023-04-01T02:43:56.554Z,25.84
2023-04-01T02:44:56.619Z,25.82
2023-04-01T02:45:56.684Z,25.82
2023-04-01T02:46:56.725Z,25.78
2023-04-01T02:47:56.778Z,25.82
2023-04-01T02:48:56.792Z,25.80
2023-04-01T02:49:56.830Z,25.81
2023-04-01T02:50:56.863Z,25.79
2023-04-01T02:51:56.855Z,25.78
2023-04-01T02:52:56.843Z,25.79
2023-04-01T02:53:56.849Z,25.78
2023-04-01T02:54:56.819Z,25.80
2023-04-01T02:55:56.816Z,25.80
2023-04-01T02:56:56.841Z,25.79
2023-04-01T02:57:56.810Z,25.78
2023-04-01T02:58:56.774Z,25.72
2023-04-01T02:59:56.768Z,25.75
2023-04-01T03:00:56.817Z,25.76
2023-04-01T03:01:56.777Z,25.76
2023-04-01T03:02:56.925Z,25.74
2023-04-01T03:03:56.714Z,25.75
2023-04-01T03:04:56.717Z,25.75
2023-04-01T03:05:56.701Z,25.76
2023-04-01T03:06:56.682Z,25.78
2023-04-01T03:07:56.668Z,25.75
2023-04-01T03:08:56.648Z,25.74
2023-04-01T03:09:56.644Z,25.73
2023-04-01T03:10:57.315Z,25.77
2023-04-01T03:11:56.623Z,25.78
2023-04-01T03:12:56.616Z,25.72
2023-04-01T03:13:56.629Z,25.72
2023-04-01T03:14:56.580Z,25.76
2023-04-01T03:15:56.597Z,25.72
2023-04-01T03:16:56.600Z,25.69
2023-04-01T03:17:56.595Z,25.70
2023-04-01T03:18:56.552Z,25.69
2023-04-01T03:19:56.540Z,25.74
2023-04-01T03:20:56.532Z,25.70
2023-04-01T03:21:56.507Z,25.69
2023-04-01T03:22:56.515Z,25.72
2023-04-01T03:23:56.472Z,25.70
2023-04-01T03:24:56.474Z,25.68
2023-04-01T03:25:56.468Z,25.70
2023-04-01T03:26:56.444Z,25.69
2023-04-01T03:27:56.447Z,25.70
2023-04-01T03:28:56.435Z,25.69
2023-04-01T03:29:56.481Z,25.71
2023-04-01T03:30:56.552Z,25.68
2023-04-01T03:31:56.655Z,25.71
2023-04-01T03:32:56.549Z,25.67
2023-04-01T03:33:56.534Z,25.68
2023-04-01T03:34:56.531Z,25.69
2023-04-01T03:35:56.574Z,25.70
2023-04-01T03:36:56.556Z,25.68
2023-04-01T03:37:56.551Z,25.68
2023-04-01T03:38:56.578Z,25.70
2023-04-01T03:39:56.598Z,25.64
2023-04-01T03:40:56.605Z,25.65
2023-04-01T03:41:56.588Z,25.66
2023-04-01T03:42:56.592Z,25.68
2023-04-01T03:43:56.574Z,25.66
2023-04-01T03:44:56.541Z,25.64
2023-04-01T03:45:56.551Z,25.65
2023-04-01T03:46:56.520Z,25.63
2023-04-01T03:47:56.595Z,25.66
2023-04-01T03:48:56.484Z,25.67
2023-04-01T03:49:56.480Z,25.65
2023-04-01T03:50:56.461Z,25.65
2023-04-01T03:51:56.460Z,25.67
2023-04-01T03:52:56.452Z,25.66
2023-04-01T03:53:56.425Z,25.65
2023-04-01T03:54:56.392Z,25.63
2023-04-01T03:55:56.394Z,25.68
2023-04-01T03:56:56.407Z,25.66
2023-04-01T03:57:56.352Z,25.61
2023-04-01T03:58:56.361Z,25.66
2023-04-01T03:59:56.364Z,25.62
2023-04-01T04:00:56.342Z,25.62
2023-04-01T04:01:56.389Z,25.61
2023-04-01T04:02:56.415Z,25.62
2023-04-01T04:03:56.357Z,25.66
2023-04-01T04:04:56.284Z,25.62
2023-04-01T04:05:56.272Z,25.60
2023-04-01T04:06:56.277Z,25.62
2023-04-01T04:07:56.255Z,25.63
2023-04-01T04:08:56.213Z,25.62
2023-04-01T04:09:56.230Z,25.60
2023-04-01T04:10:56.188Z,25.61
2023-04-01T04:11:56.194Z,25.62
2023-04-01T04:12:56.188Z,25.60
2023-04-01T04:13:57.320Z,25.57
2023-04-01T04:14:56.153Z,25.61
2023-04-01T04:15:56.144Z,25.61
2023-04-01T04:16:56.095Z,25.62
2023-04-01T04:17:56.122Z,25.60
2023-04-01T04:18:56.065Z,25.59
2023-04-01T04:19:56.035Z,25.59
2023-04-01T04:20:56.022Z,25.58
2023-04-01T04:21:56.019Z,25.57
2023-04-01T04:22:56.001Z,25.59
2023-04-01T04:23:55.975Z,25.60
2023-04-01T04:24:55.971Z,25.59
2023-04-01T04:25:55.960Z,25.56
2023-04-01T04:26:55.955Z,25.56
2023-04-01T04:27:55.935Z,25.58
2023-04-01T04:28:55.916Z,25.56
2023-04-01T04:29:55.914Z,25.57
2023-04-01T04:30:55.921Z,25.58
2023-04-01T04:31:55.961Z,25.60
2023-04-01T04:32:55.880Z,25.56
2023-04-01T04:33:55.904Z,25.58
2023-04-01T04:34:55.928Z,25.60
2023-04-01T04:35:55.931Z,25.56
2023-04-01T04:36:55.933Z,25.56
2023-04-01T04:37:55.935Z,25.55
2023-04-01T04:38:55.943Z,25.57
2023-04-01T04:39:55.956Z,25.54
2023-04-01T04:40:55.966Z,25.52
2023-04-01T04:41:55.987Z,25.54
2023-04-01T04:42:56.000Z,25.55
2023-04-01T04:43:56.037Z,25.57
2023-04-01T04:44:56.020Z,25.56
2023-04-01T04:45:56.054Z,25.57
2023-04-01T04:46:58.311Z,25.56
2023-04-01T04:47:56.188Z,25.55
2023-04-01T04:48:56.171Z,25.55
2023-04-01T04:49:56.182Z,25.56
2023-04-01T04:50:56.208Z,25.54
2023-04-01T04:51:56.201Z,25.56
2023-04-01T04:52:56.183Z,25.58
2023-04-01T04:53:56.229Z,25.57
2023-04-01T04:54:56.162Z,25.54
2023-04-01T04:55:56.161Z,25.54
2023-04-01T04:56:56.228Z,25.55
2023-04-01T04:57:56.133Z,25.57
2023-04-01T04:58:56.120Z,25.56
2023-04-01T04:59:56.106Z,25.54
2023-04-01T05:00:56.129Z,25.51
2023-04-01T05:01:56.084Z,25.54
2023-04-01T05:02:56.160Z,25.51
2023-04-01T05:03:56.061Z,25.50
2023-04-01T05:04:56.044Z,25.52
2023-04-01T05:05:56.030Z,25.50
2023-04-01T05:06:56.031Z,25.55
2023-04-01T05:07:56.023Z,25.53
2023-04-01T05:08:55.998Z,25.49
2023-04-01T05:09:56.002Z,25.53
2023-04-01T05:10:55.986Z,25.52
2023-04-01T05:11:55.948Z,25.53
2023-04-01T05:12:55.932Z,25.52
2023-04-01T05:13:55.923Z,25.50
2023-04-01T05:14:55.907Z,25.51
2023-04-01T05:15:55.918Z,25.50
2023-04-01T05:16:55.985Z,25.51
2023-04-01T05:17:56.006Z,25.53
2023-04-01T05:18:56.064Z,25.51
2023-04-01T05:19:56.101Z,25.50
2023-04-01T05:20:56.167Z,25.51
2023-04-01T05:21:56.223Z,25.50
2023-04-01T05:22:56.270Z,25.50
2023-04-01T05:23:56.305Z,25.50
2023-04-01T05:24:56.361Z,25.51
2023-04-01T05:25:56.348Z,25.51
2023-04-01T05:26:57.117Z,25.50
2023-04-01T05:27:56.325Z,25.50
2023-04-01T05:28:56.314Z,25.49
2023-04-01T05:29:56.290Z,25.50
2023-04-01T05:30:56.338Z,25.49
2023-04-01T05:31:56.298Z,25.51
2023-04-01T05:32:56.300Z,25.50
2023-04-01T05:33:56.264Z,25.50
2023-04-01T05:34:56.253Z,25.51
2023-04-01T05:35:56.275Z,25.48
2023-04-01T05:36:56.229Z,25.48
2023-04-01T05:37:56.212Z,25.48
2023-04-01T05:38:56.197Z,25.48
2023-04-01T05:39:56.191Z,25.48
2023-04-01T05:40:56.173Z,25.51
2023-04-01T05:41:56.166Z,25.51
2023-04-01T05:42:56.165Z,25.49
2023-04-01T05:43:56.135Z,25.48
2023-04-01T05:44:56.130Z,25.46
2023-04-01T05:45:56.149Z,25.48
2023-04-01T05:46:56.144Z,25.49
2023-04-01T05:47:56.142Z,25.49
2023-04-01T05:48:56.092Z,25.50
2023-04-01T05:49:56.080Z,25.47
2023-04-01T05:50:56.063Z,25.51
2023-04-01T05:51:56.070Z,25.47
2023-04-01T05:52:56.055Z,25.45
2023-04-01T05:53:56.054Z,25.49
2023-04-01T05:54:56.078Z,25.50
2023-04-01T05:55:56.081Z,25.48
2023-04-01T05:56:56.124Z,25.47
2023-04-01T05:57:56.068Z,25.47
2023-04-01T05:58:56.089Z,25.49
2023-04-01T05:59:56.022Z,25.46
2023-04-01T06:01:08.051Z,25.45
2023-04-01T06:01:58.822Z,25.49
2023-04-01T06:02:56.080Z,25.46
2023-04-01T06:03:56.179Z,25.45
2023-04-01T06:04:56.064Z,25.46
2023-04-01T06:05:55.942Z,25.46
2023-04-01T06:06:55.929Z,25.46
2023-04-01T06:07:55.917Z,25.46
2023-04-01T06:08:55.911Z,25.46
2023-04-01T06:09:55.894Z,25.47
2023-04-01T06:10:55.886Z,25.47
2023-04-01T06:11:55.883Z,25.46
2023-04-01T06:12:55.851Z,25.47
2023-04-01T06:13:55.838Z,25.47
2023-04-01T06:14:55.836Z,25.47
2023-04-01T06:15:55.828Z,25.46
2023-04-01T06:16:55.812Z,25.46
2023-04-01T06:17:55.835Z,25.46
2023-04-01T06:18:55.793Z,25.47
2023-04-01T06:19:55.762Z,25.47
2023-04-01T06:20:55.754Z,25.45
2023-04-01T06:21:55.749Z,25.47
2023-04-01T06:22:55.755Z,25.47
2023-04-01T06:23:55.723Z,25.48
2023-04-01T06:24:55.699Z,25.46
2023-04-01T06:25:55.681Z,25.48
2023-04-01T06:26:55.709Z,25.45
2023-04-01T06:27:55.651Z,25.44
2023-04-01T06:28:55.668Z,25.44
2023-04-01T06:29:55.618Z,25.46
2023-04-01T06:30:55.629Z,25.45
2023-04-01T06:31:55.665Z,25.45
2023-04-01T06:32:55.681Z,25.45
2023-04-01T06:33:55.589Z,25.43
2023-04-01T06:34:55.575Z,25.43
2023-04-01T06:35:55.638Z,25.45
2023-04-01T06:36:55.552Z,25.46
2023-04-01T06:37:55.586Z,25.46
2023-04-01T06:38:55.532Z,25.47
2023-04-01T06:39:55.551Z,25.46
2023-04-01T06:40:55.495Z,25.48
2023-04-01T06:41:55.472Z,25.47
2023-04-01T06:42:55.477Z,25.50
2023-04-01T06:43:55.464Z,25.46
2023-04-01T06:44:55.448Z,25.47
2023-04-01T06:45:55.438Z,25.47
2023-04-01T06:46:55.437Z,25.48
2023-04-01T06:47:55.504Z,25.46
2023-04-01T06:48:55.382Z,25.45
2023-04-01T06:49:55.442Z,25.45
2023-04-01T06:50:55.348Z,25.47
2023-04-01T06:51:55.341Z,25.46
2023-04-01T06:52:55.319Z,25.47
2023-04-01T06:53:55.306Z,25.45
2023-04-01T06:54:55.292Z,25.47
2023-04-01T06:55:55.276Z,25.48
2023-04-01T06:56:55.263Z,25.45
2023-04-01T06:57:55.245Z,25.47
2023-04-01T06:58:55.230Z,25.47
2023-04-01T06:59:55.214Z,25.48
2023-04-01T07:00:55.205Z,25.49
2023-04-01T07:01:55.190Z,25.48
2023-04-01T07:02:55.293Z,25.46
2023-04-01T07:03:55.165Z,25.46
2023-04-01T07:04:55.131Z,25.49
2023-04-01T07:05:55.133Z,25.48
2023-04-01T07:06:55.113Z,25.49
2023-04-01T07:07:55.108Z,25.49
2023-04-01T07:08:55.075Z,25.47
2023-04-01T07:09:55.047Z,25.48
2023-04-01T07:10:55.224Z,25.49
2023-04-01T07:11:55.045Z,25.47
2023-04-01T07:12:55.072Z,25.49
2023-04-01T07:13:55.140Z,25.47
2023-04-01T07:14:55.104Z,25.49
2023-04-01T07:15:56.089Z,25.51
2023-04-01T07:16:55.157Z,25.49
2023-04-01T07:17:55.199Z,25.50
2023-04-01T07:18:55.152Z,25.49
2023-04-01T07:19:55.165Z,25.52
2023-04-01T07:20:55.946Z,25.54
2023-04-01T07:21:55.176Z,25.53
2023-04-01T07:22:55.176Z,25.55
2023-04-01T07:23:55.188Z,25.53
2023-04-01T07:24:55.190Z,25.55
2023-04-01T07:25:55.192Z,25.56
2023-04-01T07:26:55.201Z,25.63
2023-04-01T07:27:55.192Z,25.67
2023-04-01T07:28:55.181Z,25.69
2023-04-01T07:29:55.162Z,25.69
2023-04-01T07:30:55.167Z,25.74
2023-04-01T07:31:55.130Z,25.73
2023-04-01T07:32:55.132Z,25.72
2023-04-01T07:33:55.094Z,25.71
2023-04-01T07:34:55.060Z,25.71
2023-04-01T07:35:55.092Z,25.73
2023-04-01T07:36:55.035Z,25.70
2023-04-01T07:37:55.067Z,25.70
2023-04-01T07:38:54.997Z,25.70
2023-04-01T07:39:54.986Z,25.69
2023-04-01T07:40:54.954Z,25.70
2023-04-01T07:41:54.936Z,25.69
2023-04-01T07:42:54.914Z,25.67
2023-04-01T07:43:54.919Z,25.65
2023-04-01T07:44:54.884Z,25.64
2023-04-01T07:45:54.890Z,25.67
2023-04-01T07:46:54.837Z,25.65
2023-04-01T07:47:54.973Z,25.62
2023-04-01T07:48:54.806Z,25.62
2023-04-01T07:49:54.773Z,25.59
2023-04-01T07:50:54.763Z,25.61
2023-04-01T07:51:54.744Z,25.60
2023-04-01T07:52:54.743Z,25.57
2023-04-01T07:53:54.732Z,25.58
2023-04-01T07:54:54.698Z,25.58
2023-04-01T07:55:54.675Z,25.58
2023-04-01T07:56:54.675Z,25.53
2023-04-01T07:57:54.638Z,25.51
2023-04-01T07:58:54.636Z,25.50
2023-04-01T07:59:54.590Z,25.50
2023-04-01T08:00:54.581Z,25.50
2023-04-01T08:01:54.544Z,25.50
2023-04-01T08:02:54.583Z,25.48
2023-04-01T08:03:54.602Z,25.50
2023-04-01T08:04:54.502Z,25.48
2023-04-01T08:05:54.473Z,25.48
2023-04-01T08:06:54.454Z,25.54
2023-04-01T08:07:54.440Z,25.51
2023-04-01T08:08:54.415Z,25.49
2023-04-01T08:09:54.390Z,25.52
2023-04-01T08:10:54.372Z,25.51
2023-04-01T08:11:54.363Z,25.53
2023-04-01T08:12:54.342Z,25.51
2023-04-01T08:13:54.298Z,25.50
2023-04-01T08:14:54.285Z,25.51
2023-04-01T08:15:54.292Z,25.47
2023-04-01T08:16:54.736Z,25.47
2023-04-01T08:17:54.243Z,25.44
2023-04-01T08:18:54.240Z,25.44
2023-04-01T08:19:54.168Z,25.43
2023-04-01T08:20:54.161Z,25.44
2023-04-01T08:21:54.144Z,25.46
2023-04-01T08:22:54.105Z,25.44
2023-04-01T08:23:54.091Z,25.42
2023-04-01T08:24:54.056Z,25.39
2023-04-01T08:25:54.076Z,25.38
2023-04-01T08:26:54.007Z,25.39
2023-04-01T08:27:53.989Z,25.39
2023-04-01T08:28:54.024Z,25.38
2023-04-01T08:29:53.959Z,25.38
2023-04-01T08:30:53.994Z,25.39
2023-04-01T08:31:54.059Z,25.36
2023-04-01T08:32:54.033Z,25.35
2023-04-01T08:33:53.963Z,25.38
2023-04-01T08:34:54.030Z,25.37
2023-04-01T08:35:54.002Z,25.37
2023-04-01T08:36:53.990Z,25.37
2023-04-01T08:37:53.971Z,25.38
2023-04-01T08:38:53.999Z,25.39
2023-04-01T08:39:53.993Z,25.38
2023-04-01T08:40:54.071Z,25.36
2023-04-01T08:41:53.987Z,25.39
2023-04-01T08:42:54.008Z,25.37
2023-04-01T08:43:54.061Z,25.35
2023-04-01T08:44:54.105Z,25.33
2023-04-01T08:45:54.199Z,25.34
2023-04-01T08:46:54.142Z,25.31
2023-04-01T08:47:54.294Z,25.31
2023-04-01T08:48:54.213Z,25.30
2023-04-01T08:49:54.246Z,25.29
2023-04-01T08:50:54.289Z,25.27
2023-04-01T08:51:54.299Z,25.28
2023-04-01T08:52:54.322Z,25.25
2023-04-01T08:53:54.337Z,25.24
2023-04-01T08:54:54.388Z,25.22
2023-04-01T08:55:54.395Z,25.21
2023-04-01T08:56:54.442Z,25.21
2023-04-01T08:57:55.412Z,25.17
2023-04-01T08:58:54.500Z,25.18
2023-04-01T08:59:54.533Z,25.18
2023-04-01T09:00:54.544Z,25.19
2023-04-01T09:01:54.551Z,25.19
2023-04-01T09:02:54.628Z,25.22
2023-04-01T09:03:54.701Z,25.21
2023-04-01T09:04:54.612Z,25.17
2023-04-01T09:05:54.618Z,25.14
2023-04-01T09:06:54.655Z,25.14
2023-04-01T09:07:54.632Z,25.11
2023-04-01T09:08:54.652Z,25.06
2023-04-01T09:09:54.661Z,25.10
2023-04-01T09:10:54.655Z,25.11
2023-04-01T09:11:54.681Z,25.14
2023-04-01T09:12:54.643Z,25.13
2023-04-01T09:13:54.696Z,25.12
2023-04-01T09:14:54.701Z,25.06
2023-04-01T09:15:54.746Z,25.08
2023-04-01T09:16:54.704Z,25.12
2023-04-01T09:17:54.759Z,25.15
2023-04-01T09:18:54.746Z,25.14
2023-04-01T09:19:54.801Z,25.13
2023-04-01T09:20:54.772Z,25.12
2023-04-01T09:21:54.803Z,25.10
2023-04-01T09:22:54.793Z,25.11
2023-04-01T09:23:54.791Z,25.07
2023-04-01T09:24:54.793Z,25.04
2023-04-01T09:25:54.838Z,25.00
2023-04-01T09:26:54.886Z,24.99
2023-04-01T09:27:54.905Z,25.02
2023-04-01T09:28:54.951Z,25.04
2023-04-01T09:29:54.997Z,25.03
2023-04-01T09:30:55.046Z,25.00
2023-04-01T09:31:55.143Z,25.03
2023-04-01T09:32:55.124Z,25.06
2023-04-01T09:33:55.146Z,25.06
2023-04-01T09:34:55.186Z,25.07
2023-04-01T09:35:55.245Z,25.07
2023-04-01T09:36:55.247Z,25.03
2023-04-01T09:37:55.289Z,25.06
2023-04-01T09:38:55.322Z,25.07
2023-04-01T09:39:55.357Z,25.07
2023-04-01T09:40:55.401Z,25.04
2023-04-01T09:41:55.449Z,25.06
2023-04-01T09:42:55.520Z,25.06
2023-04-01T09:43:55.523Z,25.06
2023-04-01T09:44:55.543Z,25.07
2023-04-01T09:45:55.619Z,25.10
2023-04-01T09:46:55.628Z,25.10
2023-04-01T09:47:55.739Z,25.08
2023-04-01T09:48:55.730Z,25.08
2023-04-01T09:49:55.763Z,25.07
2023-04-01T09:50:55.801Z,25.08
2023-04-01T09:51:55.842Z,25.08
2023-04-01T09:52:55.877Z,25.05
2023-04-01T09:53:55.910Z,25.01
2023-04-01T09:54:55.962Z,25.06
2023-04-01T09:55:56.005Z,25.03
2023-04-01T09:56:56.095Z,25.02
2023-04-01T09:57:56.016Z,24.95
2023-04-01T09:58:56.020Z,24.89
2023-04-01T09:59:56.086Z,24.90
2023-04-01T10:00:56.091Z,24.92
2023-04-01T10:01:56.168Z,24.92
2023-04-01T10:02:56.201Z,24.89
2023-04-01T10:03:56.192Z,24.82
2023-04-01T10:04:56.263Z,24.80
2023-04-01T10:05:56.307Z,24.79
2023-04-01T10:06:56.292Z,24.83
2023-04-01T10:07:56.314Z,24.86
2023-04-01T10:08:56.339Z,24.84
2023-04-01T10:09:56.376Z,24.78
2023-04-01T10:10:56.378Z,24.81
2023-04-01T10:11:56.414Z,24.78
2023-04-01T10:12:56.444Z,24.82
2023-04-01T10:13:56.467Z,24.70
2023-04-01T10:14:56.484Z,24.72
2023-04-01T10:15:56.549Z,24.73
2023-04-01T10:16:56.538Z,24.74
2023-04-01T10:17:56.592Z,24.78
2023-04-01T10:18:56.605Z,24.80
2023-04-01T10:19:56.600Z,24.79
2023-04-01T10:20:56.628Z,24.79
2023-04-01T10:21:56.645Z,24.76
2023-04-01T10:22:56.666Z,24.71
2023-04-01T10:23:56.639Z,24.73
2023-04-01T10:24:56.608Z,24.69
2023-04-01T10:25:56.588Z,24.65
2023-04-01T10:26:56.587Z,24.52
2023-04-01T10:27:56.544Z,24.59
2023-04-01T10:28:56.517Z,24.57
2023-04-01T10:29:56.475Z,24.59
2023-04-01T10:30:56.451Z,24.59
2023-04-01T10:31:56.472Z,24.56
2023-04-01T10:32:56.513Z,24.56
2023-04-01T10:33:56.354Z,24.52
2023-04-01T10:34:56.343Z,24.52
2023-04-01T10:35:56.406Z,24.53
2023-04-01T10:36:56.420Z,24.55
2023-04-01T10:37:56.513Z,24.57
2023-04-01T10:38:56.444Z,24.53
2023-04-01T10:39:56.464Z,24.49
2023-04-01T10:40:56.499Z,24.44
2023-04-01T10:41:56.502Z,24.41
2023-04-01T10:42:56.520Z,24.42
2023-04-01T10:43:56.568Z,24.33
2023-04-01T10:44:56.603Z,24.35
2023-04-01T10:45:56.615Z,24.27
2023-04-01T10:46:56.649Z,24.21
2023-04-01T10:47:56.685Z,24.25
2023-04-01T10:48:56.671Z,24.31
2023-04-01T10:49:56.714Z,24.37
2023-04-01T10:50:56.739Z,24.36
2023-04-01T10:51:56.712Z,24.28
2023-04-01T10:52:56.729Z,24.24
2023-04-01T10:53:56.735Z,24.23
2023-04-01T10:54:56.741Z,24.19
2023-04-01T10:55:56.767Z,24.21
2023-04-01T10:56:56.827Z,24.19
2023-04-01T10:57:56.806Z,24.19
2023-04-01T10:58:56.821Z,24.17
2023-04-01T10:59:56.843Z,24.09
2023-04-01T11:00:56.890Z,24.10
2023-04-01T11:02:10.171Z,24.10
2023-04-01T11:02:57.927Z,24.13
2023-04-01T11:03:56.928Z,24.08
2023-04-01T11:04:56.784Z,24.05
2023-04-01T11:05:56.793Z,24.05
2023-04-01T11:06:56.764Z,24.05
2023-04-01T11:08:05.878Z,24.05
2023-04-01T11:08:56.647Z,24.11
2023-04-01T11:09:56.627Z,24.04
2023-04-01T11:10:56.641Z,24.04
2023-04-01T11:11:56.585Z,23.98
2023-04-01T11:12:56.708Z,23.95
2023-04-01T11:13:56.510Z,24.07
2023-04-01T11:14:56.496Z,23.99
2023-04-01T11:15:56.512Z,24.10
2023-04-01T11:16:56.430Z,24.05
2023-04-01T11:17:56.450Z,23.98
2023-04-01T11:18:56.370Z,23.99
2023-04-01T11:19:56.334Z,24.06
2023-04-01T11:20:56.284Z,24.04
2023-04-01T11:21:56.264Z,24.08
2023-04-01T11:22:56.229Z,24.11
2023-04-01T11:24:57.217Z,24.10
2023-04-01T11:25:56.197Z,24.06
2023-04-01T11:26:56.201Z,24.04
2023-04-01T11:27:56.172Z,24.06
2023-04-01T11:28:56.083Z,24.03
2023-04-01T11:30:00.182Z,24.03
2023-04-01T11:30:56.066Z,24.03
2023-04-01T11:31:56.058Z,24.00
2023-04-01T11:32:56.084Z,24.05
2023-04-01T11:33:55.982Z,24.08
2023-04-01T11:34:55.914Z,24.03
2023-04-01T11:35:55.885Z,24.02
2023-04-01T11:36:55.902Z,24.00
2023-04-01T11:37:55.843Z,23.98
2023-04-01T11:38:55.814Z,24.02
2023-04-01T11:39:58.096Z,23.98
2023-04-01T11:40:55.843Z,23.99
2023-04-01T11:41:55.852Z,24.03
2023-04-01T11:42:55.864Z,23.98
2023-04-01T11:43:55.887Z,23.93
2023-04-01T11:44:55.887Z,23.93
2023-04-01T11:45:55.930Z,23.84
2023-04-01T11:46:55.936Z,23.91
2023-04-01T11:47:56.066Z,23.90
2023-04-01T11:48:56.022Z,23.89
2023-04-01T11:49:55.976Z,23.89
2023-04-01T11:50:56.001Z,23.83
2023-04-01T11:51:56.031Z,23.80
2023-04-01T11:52:56.046Z,23.82
2023-04-01T11:53:56.052Z,23.81
2023-04-01T11:54:56.083Z,23.79
2023-04-01T11:55:56.106Z,23.72
2023-04-01T11:56:56.143Z,23.83
2023-04-01T11:57:56.127Z,23.83
2023-04-01T11:58:56.159Z,23.73
2023-04-01T11:59:56.233Z,23.61
2023-04-01T12:00:56.222Z,23.68
2023-04-01T12:01:56.215Z,23.57
2023-04-01T12:02:56.277Z,23.57
2023-04-01T12:03:57.277Z,23.60
2023-04-01T12:04:56.248Z,23.32
2023-04-01T12:05:56.074Z,23.45
2023-04-01T12:06:56.037Z,23.37
2023-04-01T12:07:56.041Z,23.27
2023-04-01T12:08:55.986Z,23.08
2023-04-01T12:09:55.951Z,23.13
2023-04-01T12:10:55.925Z,23.00
2023-04-01T12:11:55.909Z,22.96
2023-04-01T12:13:01.300Z,23.00
2023-04-01T12:13:56.844Z,23.10
2023-04-01T12:14:55.819Z,23.05
2023-04-01T12:15:55.810Z,22.94
2023-04-01T12:16:55.768Z,22.94
2023-04-01T12:17:55.789Z,22.91
2023-04-01T12:18:55.721Z,22.88
2023-04-01T12:19:55.703Z,23.03
2023-04-01T12:20:55.670Z,22.93
2023-04-01T12:21:55.720Z,23.04
2023-04-01T12:22:55.618Z,22.92
2023-04-01T12:23:55.600Z,22.86
2023-04-01T12:24:55.619Z,22.88
2023-04-01T12:25:55.543Z,22.92
2023-04-01T12:26:55.558Z,22.72
2023-04-01T12:27:55.560Z,22.76
2023-04-01T12:28:55.592Z,22.75
2023-04-01T12:29:55.609Z,22.80
2023-04-01T12:30:55.621Z,22.82
2023-04-01T12:31:55.712Z,22.85
2023-04-01T12:32:55.723Z,22.81
2023-04-01T12:33:55.695Z,22.75
2023-04-01T12:34:55.705Z,22.79
2023-04-01T12:35:55.742Z,22.75
2023-04-01T12:36:55.760Z,22.71
2023-04-01T12:37:55.799Z,22.68
2023-04-01T12:38:55.762Z,22.80
2023-04-01T12:39:55.805Z,22.63
2023-04-01T12:40:55.807Z,22.74
2023-04-01T12:41:55.824Z,22.71
2023-04-01T12:42:55.845Z,22.67
2023-04-01T12:43:55.862Z,22.81
2023-04-01T12:44:55.869Z,22.95
2023-04-01T12:45:55.908Z,22.76
2023-04-01T12:46:55.910Z,22.75
2023-04-01T12:47:55.932Z,22.79
2023-04-01T12:48:55.922Z,22.84
2023-04-01T12:49:55.935Z,22.94
2023-04-01T12:50:55.949Z,22.90
2023-04-01T12:51:55.958Z,22.90
2023-04-01T12:52:56.031Z,22.93
2023-04-01T12:53:55.990Z,22.91